createdAt,value
2017-12-16T00:00:25.664Z,25.40
2017-12-16T00:01:25.670Z,22.70
2017-12-16T00:02:25.682Z,23.90
2017-12-16T00:03:25.700Z,24.90
2017-12-16T00:04:25.713Z,26.60
2017-12-16T00:05:25.722Z,28.20
2017-12-16T00:06:25.735Z,21.80
2017-12-16T00:07:25.747Z,24.60
2017-12-16T00:08:25.760Z,25.50
2017-12-16T00:09:25.777Z,30.10
2017-12-16T00:10:25.786Z,26.20
2017-12-16T00:11:25.801Z,22.60
2017-12-16T00:12:25.813Z,23.10
2017-12-16T00:13:25.824Z,25.90
2017-12-16T00:14:25.841Z,25.50
2017-12-16T00:15:25.849Z,23.30
2017-12-16T00:16:25.863Z,23.90
2017-12-16T00:17:25.873Z,24.80
2017-12-16T00:18:25.891Z,25.90
2017-12-16T00:19:25.902Z,24.80
2017-12-16T00:20:25.916Z,20.60
2017-12-16T00:21:25.928Z,19.40
2017-12-16T00:22:25.941Z,23.30
2017-12-16T00:23:25.953Z,24.50
2017-12-16T00:24:25.967Z,23.60
2017-12-16T00:25:25.980Z,23.70
2017-12-16T00:26:25.992Z,25.40
2017-12-16T00:27:26.007Z,21.30
2017-12-16T00:28:26.017Z,24.00
2017-12-16T00:29:26.030Z,22.60
2017-12-16T00:30:26.043Z,20.20
2017-12-16T00:31:26.059Z,23.10
2017-12-16T00:32:26.070Z,22.60
2017-12-16T00:33:26.081Z,26.50
2017-12-16T00:34:26.096Z,22.80
2017-12-16T00:35:26.109Z,25.80
2017-12-16T00:36:26.122Z,20.70
2017-12-16T00:37:26.132Z,22.80
2017-12-16T00:38:26.147Z,26.60
2017-12-16T00:39:26.159Z,26.50
2017-12-16T00:40:26.176Z,22.10
2017-12-16T00:41:26.189Z,21.40
2017-12-16T00:42:26.252Z,25.30
2017-12-16T00:43:26.212Z,26.80
2017-12-16T00:44:26.224Z,25.20
2017-12-16T00:45:26.237Z,23.70
2017-12-16T00:46:26.289Z,26.90
2017-12-16T00:47:26.275Z,25.10
2017-12-16T00:48:26.279Z,21.30
2017-12-16T00:49:26.296Z,22.70
2017-12-16T00:50:26.309Z,26.00
2017-12-16T00:51:26.314Z,24.10
2017-12-16T00:52:26.330Z,23.20
2017-12-16T00:53:26.343Z,25.50
2017-12-16T00:54:26.358Z,27.50
2017-12-16T00:55:26.367Z,24.20
2017-12-16T00:56:26.384Z,25.20
2017-12-16T00:57:26.394Z,25.40
2017-12-16T00:58:26.408Z,23.50
2017-12-16T00:59:26.423Z,23.00
2017-12-16T01:00:26.434Z,22.10
2017-12-16T01:01:26.446Z,27.90
2017-12-16T01:02:26.462Z,24.30
2017-12-16T01:03:26.472Z,27.70
2017-12-16T01:04:26.487Z,27.80
2017-12-16T01:05:26.498Z,28.00
2017-12-16T01:06:26.509Z,26.00
2017-12-16T01:07:26.527Z,25.40
2017-12-16T01:08:26.542Z,22.60
2017-12-16T01:09:26.552Z,28.90
2017-12-16T01:10:26.563Z,25.00
2017-12-16T01:11:26.577Z,29.00
2017-12-16T01:12:26.619Z,24.00
2017-12-16T01:13:26.606Z,27.50
2017-12-16T01:14:26.616Z,27.50
2017-12-16T01:15:26.630Z,23.50
2017-12-16T01:16:26.642Z,27.70
2017-12-16T01:17:26.658Z,28.50
2017-12-16T01:18:26.674Z,30.30
2017-12-16T01:19:26.682Z,34.40
2017-12-16T01:20:26.701Z,24.60
2017-12-16T01:21:26.705Z,23.30
2017-12-16T01:22:26.718Z,23.40
2017-12-16T01:23:26.735Z,26.40
2017-12-16T01:24:26.748Z,23.20
2017-12-16T01:25:26.759Z,30.10
2017-12-16T01:26:26.776Z,22.80
2017-12-16T01:27:26.786Z,27.70
2017-12-16T01:28:26.796Z,25.50
2017-12-16T01:29:26.815Z,26.00
2017-12-16T01:30:26.827Z,26.70
2017-12-16T01:31:26.839Z,26.30
2017-12-16T01:32:26.852Z,24.80
2017-12-16T01:33:26.864Z,24.60
2017-12-16T01:34:26.878Z,26.40
2017-12-16T01:35:26.888Z,22.30
2017-12-16T01:36:26.902Z,25.80
2017-12-16T01:37:26.915Z,24.20
2017-12-16T01:38:26.929Z,26.40
2017-12-16T01:39:26.943Z,23.90
2017-12-16T01:40:26.957Z,26.40
2017-12-16T01:41:26.969Z,30.30
2017-12-16T01:42:26.987Z,26.30
2017-12-16T01:43:26.994Z,24.70
2017-12-16T01:44:27.009Z,24.90
2017-12-16T01:45:27.023Z,32.80
2017-12-16T01:46:27.032Z,23.20
2017-12-16T01:47:27.046Z,22.20
2017-12-16T01:48:27.060Z,26.20
2017-12-16T01:49:27.114Z,25.80
2017-12-16T01:50:27.092Z,28.10
2017-12-16T01:51:27.101Z,23.70
2017-12-16T01:52:27.148Z,23.30
2017-12-16T01:53:27.124Z,25.30
2017-12-16T01:54:27.138Z,21.00
2017-12-16T01:55:27.154Z,22.80
2017-12-16T01:56:27.166Z,23.10
2017-12-16T01:57:27.180Z,27.30
2017-12-16T01:58:27.195Z,25.70
2017-12-16T01:59:27.207Z,25.30
2017-12-16T02:00:27.221Z,27.00
2017-12-16T02:01:27.232Z,27.60
2017-12-16T02:02:27.246Z,23.30
2017-12-16T02:03:27.260Z,24.50
2017-12-16T02:04:27.273Z,26.00
2017-12-16T02:05:27.285Z,22.80
2017-12-16T02:06:27.296Z,21.20
2017-12-16T02:07:27.312Z,22.90
2017-12-16T02:08:27.380Z,24.80
2017-12-16T02:09:27.339Z,24.00
2017-12-16T02:10:27.349Z,26.90
2017-12-16T02:11:27.369Z,24.40
2017-12-16T02:12:27.385Z,24.50
2017-12-16T02:13:27.391Z,25.20
2017-12-16T02:14:27.403Z,25.50
2017-12-16T02:15:27.420Z,25.50
2017-12-16T02:16:27.430Z,25.70
2017-12-16T02:17:27.443Z,22.90
2017-12-16T02:18:27.462Z,24.50
2017-12-16T02:19:27.470Z,26.20
2017-12-16T02:20:27.483Z,22.20
2017-12-16T02:21:27.497Z,26.30
2017-12-16T02:22:27.510Z,26.40
2017-12-16T02:23:27.522Z,24.50
2017-12-16T02:24:27.536Z,21.90
2017-12-16T02:25:27.549Z,21.30
2017-12-16T02:26:27.562Z,27.50
2017-12-16T02:27:27.575Z,21.90
2017-12-16T02:28:27.589Z,22.90
2017-12-16T02:29:27.602Z,20.20
2017-12-16T02:30:27.618Z,22.10
2017-12-16T02:31:27.632Z,24.90
2017-12-16T02:32:27.643Z,22.40
2017-12-16T02:33:27.654Z,24.10
2017-12-16T02:34:27.668Z,24.50
2017-12-16T02:35:27.683Z,26.10
2017-12-16T02:36:27.695Z,22.60
2017-12-16T02:37:27.712Z,21.40
2017-12-16T02:38:27.801Z,23.40
2017-12-16T02:39:27.736Z,22.20
2017-12-16T02:40:27.749Z,20.90
2017-12-16T02:41:27.762Z,20.50
2017-12-16T02:42:27.774Z,19.40
2017-12-16T02:43:27.788Z,22.90
2017-12-16T02:44:27.806Z,22.00
2017-12-16T02:45:27.820Z,20.50
2017-12-16T02:46:27.829Z,19.90
2017-12-16T02:47:27.844Z,23.00
2017-12-16T02:48:27.858Z,22.40
2017-12-16T02:49:27.870Z,23.10
2017-12-16T02:50:27.882Z,22.30
2017-12-16T02:51:27.894Z,23.30
2017-12-16T02:52:27.911Z,20.00
2017-12-16T02:53:27.924Z,18.80
2017-12-16T02:54:27.934Z,22.30
2017-12-16T02:55:27.948Z,21.30
2017-12-16T02:56:27.961Z,18.90
2017-12-16T02:57:27.974Z,20.50
2017-12-16T02:58:27.987Z,19.90
2017-12-16T02:59:28.001Z,20.20
2017-12-16T03:00:28.015Z,21.00
2017-12-16T03:01:28.030Z,20.70
2017-12-16T03:02:28.044Z,20.50
2017-12-16T03:03:28.054Z,24.10
2017-12-16T03:04:28.068Z,25.20
2017-12-16T03:05:28.082Z,22.60
2017-12-16T03:06:28.092Z,20.50
2017-12-16T03:07:28.107Z,22.10
2017-12-16T03:08:28.120Z,24.20
2017-12-16T03:09:28.131Z,18.70
2017-12-16T03:10:28.147Z,22.10
2017-12-16T03:11:28.158Z,21.80
2017-12-16T03:12:28.170Z,25.40
2017-12-16T03:13:28.186Z,21.40
2017-12-16T03:14:28.198Z,21.90
2017-12-16T03:15:28.268Z,21.90
2017-12-16T03:16:28.225Z,24.80
2017-12-16T03:17:28.240Z,21.00
2017-12-16T03:18:28.249Z,23.90
2017-12-16T03:19:28.265Z,22.10
2017-12-16T03:20:28.278Z,23.30
2017-12-16T03:21:28.293Z,28.30
2017-12-16T03:22:28.305Z,22.90
2017-12-16T03:23:28.318Z,27.30
2017-12-16T03:24:28.332Z,26.40
2017-12-16T03:25:28.343Z,25.10
2017-12-16T03:26:28.358Z,23.10
2017-12-16T03:27:28.374Z,23.50
2017-12-16T03:28:28.387Z,20.60
2017-12-16T03:29:28.395Z,25.00
2017-12-16T03:30:28.409Z,24.80
2017-12-16T03:31:28.422Z,24.80
2017-12-16T03:32:28.438Z,27.00
2017-12-16T03:33:28.454Z,24.20
2017-12-16T03:34:28.464Z,27.10
2017-12-16T03:35:28.479Z,25.20
2017-12-16T03:36:28.489Z,28.70
2017-12-16T03:37:28.502Z,25.00
2017-12-16T03:38:28.516Z,24.50
2017-12-16T03:39:28.529Z,27.50
2017-12-16T03:40:28.565Z,28.30
2017-12-16T03:41:28.554Z,31.30
2017-12-16T03:42:28.568Z,24.30
2017-12-16T03:43:28.585Z,24.30
2017-12-16T03:44:28.593Z,27.50
2017-12-16T03:45:28.605Z,21.10
2017-12-16T03:46:28.620Z,24.30
2017-12-16T03:47:28.629Z,24.40
2017-12-16T03:48:28.645Z,27.10
2017-12-16T03:49:28.655Z,24.50
2017-12-16T03:50:28.668Z,25.40
2017-12-16T03:51:28.681Z,21.20
2017-12-16T03:52:28.717Z,26.40
2017-12-16T03:53:28.705Z,25.50
2017-12-16T03:54:28.719Z,24.50
2017-12-16T03:55:28.733Z,21.00
2017-12-16T03:56:28.749Z,22.80
2017-12-16T03:57:28.758Z,20.80
2017-12-16T03:58:28.769Z,23.10
2017-12-16T03:59:28.783Z,21.10
2017-12-16T04:00:28.800Z,24.70
2017-12-16T04:01:28.813Z,21.50
2017-12-16T04:02:28.826Z,22.90
2017-12-16T04:03:28.838Z,20.70
2017-12-16T04:04:28.853Z,20.20
2017-12-16T04:05:28.862Z,23.50
2017-12-16T04:06:28.874Z,23.20
2017-12-16T04:07:28.885Z,24.50
2017-12-16T04:08:28.903Z,28.50
2017-12-16T04:09:28.914Z,28.70
2017-12-16T04:10:28.931Z,21.90
2017-12-16T04:11:28.938Z,23.90
2017-12-16T04:12:28.953Z,22.70
2017-12-16T04:13:28.967Z,24.30
2017-12-16T04:14:28.979Z,22.80
2017-12-16T04:15:28.993Z,24.20
2017-12-16T04:16:29.006Z,23.50
2017-12-16T04:17:29.015Z,25.10
2017-12-16T04:18:29.030Z,23.30
2017-12-16T04:19:29.044Z,24.80
2017-12-16T04:20:29.054Z,24.60
2017-12-16T04:21:29.065Z,24.90
2017-12-16T04:22:29.082Z,30.80
2017-12-16T04:23:29.094Z,29.10
2017-12-16T04:24:29.109Z,24.20
2017-12-16T04:25:29.119Z,30.70
2017-12-16T04:26:29.136Z,28.70
2017-12-16T04:27:29.147Z,31.80
2017-12-16T04:28:29.158Z,33.70
2017-12-16T04:29:29.208Z,34.40
2017-12-16T04:30:29.191Z,29.00
2017-12-16T04:31:29.209Z,32.20
2017-12-16T04:32:29.213Z,33.90
2017-12-16T04:33:29.238Z,29.80
2017-12-16T04:34:29.236Z,34.50
2017-12-16T04:35:29.248Z,28.50
2017-12-16T04:36:29.274Z,31.90
2017-12-16T04:37:29.273Z,29.60
2017-12-16T04:38:29.299Z,25.50
2017-12-16T04:39:29.303Z,31.80
2017-12-16T04:40:29.314Z,32.40
2017-12-16T04:41:29.332Z,32.10
2017-12-16T04:42:29.337Z,30.40
2017-12-16T04:43:29.350Z,32.00
2017-12-16T04:44:29.366Z,28.70
2017-12-16T04:45:29.373Z,28.00
2017-12-16T04:46:29.389Z,27.50
2017-12-16T04:47:29.401Z,29.10
2017-12-16T04:48:29.420Z,28.90
2017-12-16T04:49:29.433Z,27.20
2017-12-16T04:50:29.444Z,28.30
2017-12-16T04:51:29.454Z,28.50
2017-12-16T04:52:29.466Z,27.20
2017-12-16T04:53:29.478Z,27.60
2017-12-16T04:54:29.491Z,25.20
2017-12-16T04:55:29.503Z,25.70
2017-12-16T04:56:29.517Z,33.10
2017-12-16T04:57:29.533Z,26.30
2017-12-16T04:58:29.547Z,28.60
2017-12-16T04:59:29.557Z,25.10
2017-12-16T05:00:29.569Z,25.90
2017-12-16T05:01:29.589Z,25.10
2017-12-16T05:02:29.594Z,26.60
2017-12-16T05:03:29.610Z,27.90
2017-12-16T05:04:29.620Z,26.30
2017-12-16T05:05:29.635Z,26.70
2017-12-16T05:06:29.658Z,30.30
2017-12-16T05:07:29.660Z,28.60
2017-12-16T05:08:29.676Z,24.60
2017-12-16T05:09:29.685Z,25.10
2017-12-16T05:10:29.698Z,27.70
2017-12-16T05:11:29.711Z,27.20
2017-12-16T05:12:29.727Z,28.90
2017-12-16T05:13:29.737Z,27.20
2017-12-16T05:14:29.749Z,28.20
2017-12-16T05:15:29.765Z,29.90
2017-12-16T05:16:29.775Z,28.50
2017-12-16T05:17:29.791Z,26.80
2017-12-16T05:18:29.803Z,28.10
2017-12-16T05:19:29.816Z,28.60
2017-12-16T05:20:29.828Z,27.30
2017-12-16T05:21:29.842Z,23.20
2017-12-16T05:22:29.854Z,26.40
2017-12-16T05:23:29.871Z,27.90
2017-12-16T05:24:29.881Z,29.00
2017-12-16T05:25:29.894Z,31.70
2017-12-16T05:26:29.909Z,32.00
2017-12-16T05:27:29.923Z,29.80
2017-12-16T05:28:29.935Z,30.20
2017-12-16T05:29:29.948Z,29.80
2017-12-16T05:30:29.960Z,33.70
2017-12-16T05:31:29.971Z,29.80
2017-12-16T05:32:29.991Z,29.80
2017-12-16T05:33:29.997Z,24.80
2017-12-16T05:34:30.010Z,24.30
2017-12-16T05:35:30.025Z,29.00
2017-12-16T05:36:30.037Z,24.20
2017-12-16T05:37:30.052Z,32.40
2017-12-16T05:38:30.069Z,26.30
2017-12-16T05:39:30.075Z,26.80
2017-12-16T05:40:30.090Z,29.70
2017-12-16T05:41:30.104Z,30.80
2017-12-16T05:42:30.114Z,29.10
2017-12-16T05:43:30.128Z,31.50
2017-12-16T05:44:30.141Z,31.80
2017-12-16T05:45:30.173Z,26.20
2017-12-16T05:46:30.166Z,30.60
2017-12-16T05:47:30.179Z,29.20
2017-12-16T05:48:30.202Z,30.30
2017-12-16T05:49:30.207Z,30.50
2017-12-16T05:50:30.225Z,29.90
2017-12-16T05:51:30.283Z,30.70
2017-12-16T05:52:30.255Z,33.80
2017-12-16T05:53:30.260Z,34.10
2017-12-16T05:54:30.272Z,35.20
2017-12-16T05:55:30.285Z,42.70
2017-12-16T05:56:30.299Z,41.90
2017-12-16T05:57:30.312Z,39.50
2017-12-16T05:58:30.337Z,37.00
2017-12-16T05:59:30.358Z,34.90
2017-12-16T06:00:30.352Z,37.40
2017-12-16T06:01:30.365Z,34.30
2017-12-16T06:02:30.383Z,31.30
2017-12-16T06:03:30.391Z,31.30
2017-12-16T06:04:30.402Z,28.60
2017-12-16T06:05:30.415Z,30.70
2017-12-16T06:06:30.428Z,35.40
2017-12-16T06:07:30.444Z,30.40
2017-12-16T06:08:30.455Z,27.10
2017-12-16T06:09:30.468Z,29.60
2017-12-16T06:10:30.487Z,33.20
2017-12-16T06:11:30.495Z,30.00
2017-12-16T06:12:30.511Z,37.70
2017-12-16T06:13:30.529Z,34.20
2017-12-16T06:14:30.534Z,36.70
2017-12-16T06:15:30.551Z,32.60
2017-12-16T06:16:30.560Z,37.40
2017-12-16T06:17:30.576Z,34.70
2017-12-16T06:18:30.615Z,30.60
2017-12-16T06:19:30.818Z,29.80
2017-12-16T06:20:30.625Z,28.80
2017-12-16T06:21:30.640Z,31.60
2017-12-16T06:22:30.642Z,28.00
2017-12-16T06:23:30.691Z,28.70
2017-12-16T06:24:30.672Z,27.60
2017-12-16T06:25:30.680Z,35.20
2017-12-16T06:26:30.711Z,33.20
2017-12-16T06:27:30.710Z,29.80
2017-12-16T06:28:30.727Z,29.50
2017-12-16T06:29:30.732Z,31.80
2017-12-16T06:30:30.756Z,30.20
2017-12-16T06:31:30.768Z,36.40
2017-12-16T06:32:31.698Z,36.10
2017-12-16T06:33:31.706Z,40.20
2017-12-16T06:34:30.800Z,36.20
2017-12-16T06:35:30.815Z,31.90
2017-12-16T06:36:30.833Z,34.60
2017-12-16T06:37:30.836Z,34.20
2017-12-16T06:38:30.862Z,33.40
2017-12-16T06:39:30.885Z,32.10
2017-12-16T06:40:30.876Z,31.60
2017-12-16T06:41:30.889Z,32.20
2017-12-16T06:42:30.908Z,34.00
2017-12-16T06:43:30.914Z,34.60
2017-12-16T06:44:30.933Z,29.50
2017-12-16T06:45:30.942Z,34.20
2017-12-16T06:46:30.960Z,32.40
2017-12-16T06:47:30.968Z,29.10
2017-12-16T06:48:30.979Z,33.60
2017-12-16T06:49:30.991Z,36.70
2017-12-16T06:50:31.007Z,35.10
2017-12-16T06:51:31.022Z,34.40
2017-12-16T06:52:31.032Z,31.10
2017-12-16T06:53:31.047Z,35.20
2017-12-16T06:54:31.059Z,31.30
2017-12-16T06:55:31.073Z,33.00
2017-12-16T06:56:31.077Z,32.40
2017-12-16T06:57:31.098Z,36.00
2017-12-16T06:58:31.111Z,32.90
2017-12-16T06:59:31.122Z,39.20
2017-12-16T07:00:31.140Z,45.90
2017-12-16T07:01:31.140Z,54.50
2017-12-16T07:02:31.688Z,40.70
2017-12-16T07:03:31.707Z,40.30
2017-12-16T07:04:31.745Z,40.60
2017-12-16T07:05:31.757Z,39.20
2017-12-16T07:06:31.755Z,40.30
2017-12-16T07:07:31.230Z,38.60
2017-12-16T07:08:31.239Z,43.20
2017-12-16T07:09:31.254Z,45.60
2017-12-16T07:10:31.269Z,129.10
2017-12-16T07:11:31.278Z,80.10
2017-12-16T07:12:31.293Z,110.20
2017-12-16T07:13:31.304Z,54.70
2017-12-16T07:14:31.323Z,47.00
2017-12-16T07:15:31.337Z,41.10
2017-12-16T07:16:31.348Z,47.10
2017-12-16T07:17:31.368Z,51.70
2017-12-16T07:18:31.386Z,50.70
2017-12-16T07:19:31.390Z,43.30
2017-12-16T07:20:31.400Z,44.00
2017-12-16T07:21:31.410Z,44.20
2017-12-16T07:22:31.424Z,47.10
2017-12-16T07:23:31.435Z,49.10
2017-12-16T07:24:31.447Z,50.30
2017-12-16T07:25:31.462Z,51.00
2017-12-16T07:26:31.474Z,50.40
2017-12-16T07:27:31.487Z,52.10
2017-12-16T07:28:31.501Z,50.90
2017-12-16T07:29:31.511Z,50.20
2017-12-16T07:30:31.528Z,44.80
2017-12-16T07:31:31.541Z,45.90
2017-12-16T07:32:31.554Z,49.40
2017-12-16T07:33:31.566Z,44.60
2017-12-16T07:34:31.582Z,48.20
2017-12-16T07:35:31.591Z,46.10
2017-12-16T07:36:31.607Z,49.90
2017-12-16T07:37:31.618Z,56.50
2017-12-16T07:38:31.636Z,54.60
2017-12-16T07:39:31.692Z,52.70
2017-12-16T07:40:31.661Z,53.20
2017-12-16T07:41:31.669Z,52.90
2017-12-16T07:42:31.685Z,54.20
2017-12-16T07:43:31.698Z,51.70
2017-12-16T07:44:31.714Z,51.40
2017-12-16T07:45:31.725Z,55.00
2017-12-16T07:46:31.737Z,56.60
2017-12-16T07:47:31.749Z,51.30
2017-12-16T07:48:31.766Z,54.00
2017-12-16T07:49:31.788Z,64.20
2017-12-16T07:50:31.788Z,54.90
2017-12-16T07:51:31.814Z,60.30
2017-12-16T07:52:31.828Z,58.10
2017-12-16T07:53:31.842Z,67.00
2017-12-16T07:54:31.846Z,59.80
2017-12-16T07:55:31.854Z,67.50
2017-12-16T07:56:31.873Z,59.70
2017-12-16T07:57:31.886Z,63.00
2017-12-16T07:58:31.902Z,58.50
2017-12-16T07:59:31.912Z,59.80
2017-12-16T08:00:31.922Z,63.40
2017-12-16T08:01:31.932Z,60.20
2017-12-16T08:02:31.948Z,56.70
2017-12-16T08:03:31.962Z,57.20
2017-12-16T08:04:31.975Z,60.80
2017-12-16T08:05:31.989Z,61.00
2017-12-16T08:06:32.007Z,60.50
2017-12-16T08:07:32.015Z,59.70
2017-12-16T08:08:32.031Z,61.60
2017-12-16T08:09:32.041Z,57.10
2017-12-16T08:10:32.056Z,61.90
2017-12-16T08:11:32.073Z,62.10
2017-12-16T08:12:32.082Z,60.60
2017-12-16T08:13:32.096Z,60.40
2017-12-16T08:14:32.110Z,58.10
2017-12-16T08:15:32.126Z,63.00
2017-12-16T08:16:32.142Z,64.80
2017-12-16T08:17:32.151Z,56.70
2017-12-16T08:18:32.160Z,60.10
2017-12-16T08:19:32.180Z,61.20
2017-12-16T08:20:32.193Z,59.70
2017-12-16T08:21:32.206Z,56.80
2017-12-16T08:22:32.219Z,57.20
2017-12-16T08:23:32.230Z,61.60
2017-12-16T08:24:32.244Z,60.50
2017-12-16T08:25:32.260Z,61.90
2017-12-16T08:26:32.269Z,60.20
2017-12-16T08:27:32.287Z,62.90
2017-12-16T08:28:32.298Z,77.50
2017-12-16T08:29:32.308Z,82.50
2017-12-16T08:30:32.323Z,111.30
2017-12-16T08:31:32.335Z,77.00
2017-12-16T08:32:32.353Z,66.50
2017-12-16T08:33:32.361Z,73.30
2017-12-16T08:34:32.376Z,67.40
2017-12-16T08:35:32.391Z,69.50
2017-12-16T08:36:32.400Z,62.50
2017-12-16T08:37:32.429Z,64.10
2017-12-16T08:38:32.433Z,62.60
2017-12-16T08:39:32.595Z,62.30
2017-12-16T08:40:32.456Z,63.00
2017-12-16T08:41:32.498Z,69.40
2017-12-16T08:42:32.517Z,67.30
2017-12-16T08:43:32.493Z,80.60
2017-12-16T08:44:32.510Z,69.90
2017-12-16T08:45:32.517Z,64.80
2017-12-16T08:46:32.540Z,66.10
2017-12-16T08:47:32.544Z,64.50
2017-12-16T08:48:32.568Z,66.40
2017-12-16T08:49:32.578Z,65.30
2017-12-16T08:50:32.588Z,67.00
2017-12-16T08:51:32.604Z,73.00
2017-12-16T08:52:32.611Z,74.10
2017-12-16T08:53:32.621Z,69.30
2017-12-16T08:54:32.636Z,66.70
2017-12-16T08:55:32.652Z,72.00
2017-12-16T08:56:32.669Z,66.10
2017-12-16T08:57:32.723Z,63.40
2017-12-16T08:58:32.698Z,65.10
2017-12-16T08:59:32.705Z,70.00
2017-12-16T09:00:32.718Z,86.10
2017-12-16T09:01:32.727Z,104.70
2017-12-16T09:02:32.745Z,77.30
2017-12-16T09:03:32.755Z,79.40
2017-12-16T09:04:32.771Z,162.80
2017-12-16T09:05:32.783Z,117.50
2017-12-16T09:06:32.797Z,89.90
2017-12-16T09:07:32.810Z,71.40
2017-12-16T09:08:32.826Z,68.40
2017-12-16T09:09:32.838Z,73.60
2017-12-16T09:10:32.846Z,71.10
2017-12-16T09:11:32.858Z,64.20
2017-12-16T09:12:32.874Z,70.40
2017-12-16T09:13:32.889Z,71.30
2017-12-16T09:14:32.901Z,74.70
2017-12-16T09:15:32.911Z,74.60
2017-12-16T09:16:32.926Z,81.70
2017-12-16T09:17:32.945Z,102.20
2017-12-16T09:18:32.962Z,98.20
2017-12-16T09:19:32.966Z,77.70
2017-12-16T09:20:32.986Z,77.20
2017-12-16T09:21:32.996Z,133.90
2017-12-16T09:22:33.010Z,99.10
2017-12-16T09:23:33.022Z,67.60
2017-12-16T09:24:33.035Z,62.10
2017-12-16T09:25:33.053Z,64.80
2017-12-16T09:26:33.066Z,67.90
2017-12-16T09:27:33.078Z,64.90
2017-12-16T09:28:33.107Z,57.80
2017-12-16T09:29:33.108Z,63.70
2017-12-16T09:30:33.126Z,54.80
2017-12-16T09:31:33.132Z,57.50
2017-12-16T09:32:33.146Z,53.20
2017-12-16T09:33:33.160Z,58.60
2017-12-16T09:34:33.214Z,58.30
2017-12-16T09:35:33.188Z,61.90
2017-12-16T09:36:33.199Z,61.30
2017-12-16T09:37:33.212Z,60.00
2017-12-16T09:38:33.230Z,65.30
2017-12-16T09:39:33.238Z,58.60
2017-12-16T09:40:33.253Z,65.80
2017-12-16T09:41:33.273Z,58.90
2017-12-16T09:42:33.279Z,61.60
2017-12-16T09:43:33.296Z,63.00
2017-12-16T09:44:33.320Z,59.90
2017-12-16T09:45:33.319Z,62.10
2017-12-16T09:46:33.332Z,61.00
2017-12-16T09:47:33.349Z,60.40
2017-12-16T09:48:33.364Z,58.00
2017-12-16T09:49:33.376Z,68.20
2017-12-16T09:50:33.389Z,63.40
2017-12-16T09:51:33.404Z,65.30
2017-12-16T09:52:33.464Z,66.90
2017-12-16T09:53:33.429Z,61.40
2017-12-16T09:54:33.447Z,61.10
2017-12-16T09:55:33.455Z,59.30
2017-12-16T09:56:33.468Z,58.80
2017-12-16T09:57:33.486Z,58.00
2017-12-16T09:58:33.495Z,55.20
2017-12-16T09:59:33.512Z,56.70
2017-12-16T10:00:33.526Z,50.70
2017-12-16T10:01:33.540Z,50.40
2017-12-16T10:02:33.555Z,48.50
2017-12-16T10:03:33.565Z,56.60
2017-12-16T10:04:33.579Z,51.70
2017-12-16T10:05:33.595Z,51.60
2017-12-16T10:06:33.609Z,52.20
2017-12-16T10:07:33.620Z,51.10
2017-12-16T10:08:33.638Z,50.20
2017-12-16T10:09:33.656Z,51.20
2017-12-16T10:10:33.694Z,45.30
2017-12-16T10:11:33.678Z,47.30
2017-12-16T10:12:33.693Z,49.90
2017-12-16T10:13:33.704Z,50.70
2017-12-16T10:14:33.720Z,49.80
2017-12-16T10:15:33.742Z,46.30
2017-12-16T10:16:33.747Z,47.00
2017-12-16T10:17:33.772Z,46.30
2017-12-16T10:18:33.781Z,50.30
2017-12-16T10:19:33.789Z,48.80
2017-12-16T10:20:33.802Z,46.60
2017-12-16T10:21:33.818Z,45.60
2017-12-16T10:22:33.828Z,49.20
2017-12-16T10:23:33.850Z,44.60
2017-12-16T10:24:33.863Z,43.10
2017-12-16T10:25:33.873Z,42.70
2017-12-16T10:26:33.885Z,44.80
2017-12-16T10:27:33.899Z,46.40
2017-12-16T10:28:33.918Z,45.00
2017-12-16T10:29:33.942Z,48.60
2017-12-16T10:30:33.941Z,43.70
2017-12-16T10:31:33.956Z,46.10
2017-12-16T10:32:33.971Z,51.50
2017-12-16T10:33:33.983Z,46.30
2017-12-16T10:34:34.000Z,48.10
2017-12-16T10:35:34.011Z,45.40
2017-12-16T10:36:34.027Z,48.50
2017-12-16T10:37:34.040Z,44.60
2017-12-16T10:38:34.056Z,48.30
2017-12-16T10:39:34.070Z,48.80
2017-12-16T10:40:34.734Z,44.00
2017-12-16T10:41:34.730Z,46.50
2017-12-16T10:42:34.725Z,44.30
2017-12-16T10:43:34.125Z,47.00
2017-12-16T10:44:34.144Z,44.70
2017-12-16T10:45:34.155Z,43.60
2017-12-16T10:46:34.168Z,45.30
2017-12-16T10:47:34.188Z,44.30
2017-12-16T10:48:34.192Z,50.60
2017-12-16T10:49:34.208Z,43.90
2017-12-16T10:50:34.223Z,42.60
2017-12-16T10:51:34.296Z,48.00
2017-12-16T10:52:34.249Z,42.60
2017-12-16T10:53:34.267Z,40.50
2017-12-16T10:54:34.280Z,41.20
2017-12-16T10:55:34.303Z,47.70
2017-12-16T10:56:34.307Z,43.40
2017-12-16T10:57:34.323Z,42.60
2017-12-16T10:58:34.333Z,43.40
2017-12-16T10:59:34.350Z,43.00
2017-12-16T11:00:34.365Z,43.80
2017-12-16T11:01:34.383Z,38.80
2017-12-16T11:02:34.394Z,40.30
2017-12-16T11:03:34.405Z,45.60
2017-12-16T11:04:34.425Z,44.70
2017-12-16T11:05:34.432Z,43.40
2017-12-16T11:06:34.447Z,40.20
2017-12-16T11:07:34.462Z,42.50
2017-12-16T11:08:35.301Z,43.30
2017-12-16T11:09:34.490Z,48.50
2017-12-16T11:10:34.502Z,43.50
2017-12-16T11:11:34.525Z,47.10
2017-12-16T11:12:34.534Z,43.30
2017-12-16T11:13:34.545Z,42.10
2017-12-16T11:14:34.562Z,48.60
2017-12-16T11:15:34.576Z,41.50
2017-12-16T11:16:34.590Z,47.40
2017-12-16T11:17:35.207Z,45.10
2017-12-16T11:18:35.214Z,46.70
2017-12-16T11:19:35.216Z,44.90
2017-12-16T11:20:35.222Z,45.30
2017-12-16T11:21:34.660Z,43.90
2017-12-16T11:22:34.672Z,49.90
2017-12-16T11:23:34.686Z,42.80
2017-12-16T11:24:34.701Z,41.60
2017-12-16T11:25:34.714Z,44.10
2017-12-16T11:26:34.733Z,42.40
2017-12-16T11:27:34.744Z,40.50
2017-12-16T11:28:34.755Z,41.80
2017-12-16T11:29:34.774Z,44.40
2017-12-16T11:30:34.785Z,39.30
2017-12-16T11:31:34.804Z,37.60
2017-12-16T11:32:34.815Z,43.40
2017-12-16T11:33:34.832Z,42.30
2017-12-16T11:34:34.843Z,45.80
2017-12-16T11:35:34.860Z,45.00
2017-12-16T11:36:34.875Z,39.00
2017-12-16T11:37:34.881Z,37.50
2017-12-16T11:38:34.900Z,37.10
2017-12-16T11:39:34.914Z,41.00
2017-12-16T11:40:34.929Z,33.00
2017-12-16T11:41:34.937Z,35.10
2017-12-16T11:42:34.953Z,35.60
2017-12-16T11:43:34.972Z,34.70
2017-12-16T11:44:34.983Z,38.10
2017-12-16T11:45:34.997Z,41.50
2017-12-16T11:46:35.013Z,36.90
2017-12-16T11:47:35.028Z,37.70
2017-12-16T11:48:35.041Z,42.20
2017-12-16T11:49:35.066Z,39.50
2017-12-16T11:50:35.070Z,35.20
2017-12-16T11:51:35.081Z,35.20
2017-12-16T11:52:35.093Z,36.50
2017-12-16T11:53:35.111Z,41.40
2017-12-16T11:54:35.122Z,48.40
2017-12-16T11:55:35.134Z,44.60
2017-12-16T11:56:35.156Z,44.00
2017-12-16T11:57:35.164Z,38.90
2017-12-16T11:58:35.241Z,39.50
2017-12-16T11:59:35.192Z,38.00
2017-12-16T12:00:35.205Z,33.30
2017-12-16T12:01:35.230Z,33.80
2017-12-16T12:02:35.234Z,38.00
2017-12-16T12:03:35.245Z,41.40
2017-12-16T12:04:35.263Z,42.70
2017-12-16T12:05:35.274Z,41.60
2017-12-16T12:06:35.289Z,42.00
2017-12-16T12:07:35.306Z,34.40
2017-12-16T12:08:35.323Z,39.00
2017-12-16T12:09:35.331Z,33.70
2017-12-16T12:10:35.344Z,37.50
2017-12-16T12:11:35.364Z,36.70
2017-12-16T12:12:35.373Z,37.30
2017-12-16T12:13:35.388Z,36.70
2017-12-16T12:14:35.408Z,33.90
2017-12-16T12:15:35.423Z,36.00
2017-12-16T12:16:35.432Z,34.60
2017-12-16T12:17:35.447Z,35.30
2017-12-16T12:18:35.460Z,38.70
2017-12-16T12:19:35.473Z,34.40
2017-12-16T12:20:35.489Z,35.10
2017-12-16T12:21:35.500Z,33.10
2017-12-16T12:22:35.519Z,35.00
2017-12-16T12:23:35.531Z,37.70
2017-12-16T12:24:35.543Z,33.50
2017-12-16T12:25:35.561Z,35.40
2017-12-16T12:26:35.575Z,35.30
2017-12-16T12:27:35.587Z,36.70
2017-12-16T12:28:35.606Z,36.30
2017-12-16T12:29:35.611Z,36.10
2017-12-16T12:30:35.628Z,33.00
2017-12-16T12:31:35.644Z,34.00
2017-12-16T12:32:35.656Z,36.40
2017-12-16T12:33:35.668Z,34.50
2017-12-16T12:34:35.686Z,37.30
2017-12-16T12:35:35.703Z,36.00
2017-12-16T12:36:35.719Z,35.30
2017-12-16T12:37:35.726Z,36.20
2017-12-16T12:38:35.742Z,29.10
2017-12-16T12:39:35.756Z,37.60
2017-12-16T12:40:35.769Z,33.10
2017-12-16T12:41:35.785Z,37.10
2017-12-16T12:42:35.800Z,44.20
2017-12-16T12:43:35.817Z,36.50
2017-12-16T12:44:35.829Z,33.90
2017-12-16T12:45:35.844Z,35.40
2017-12-16T12:46:35.858Z,35.10
2017-12-16T12:47:35.863Z,39.70
2017-12-16T12:48:35.883Z,33.20
2017-12-16T12:49:35.903Z,33.80
2017-12-16T12:50:35.909Z,38.20
2017-12-16T12:51:35.931Z,40.40
2017-12-16T12:52:35.943Z,35.00